sensor_id;sensor_type;location;lat;lon;timestamp;P1;durP1;ratioP1;P2;durP2;ratioP2
35188;SDS011;21762;54.480;18.556;2022-08-05T00:01:01;10.02;;;6.38;;
35188;SDS011;21762;54.480;18.556;2022-08-05T00:03:29;8.82;;;6.35;;
35188;SDS011;21762;54.480;18.556;2022-08-05T00:05:57;7.22;;;5.90;;
35188;SDS011;21762;54.480;18.556;2022-08-05T00:08:25;10.88;;;5.18;;
35188;SDS011;21762;54.480;18.556;2022-08-05T00:10:55;5.78;;;5.28;;
35188;SDS011;21762;54.480;18.556;2022-08-05T00:13:23;10.18;;;5.07;;
35188;SDS011;21762;54.480;18.556;2022-08-05T00:15:51;5.85;;;5.25;;
35188;SDS011;21762;54.480;18.556;2022-08-05T00:18:22;6.45;;;4.95;;
35188;SDS011;21762;54.480;18.556;2022-08-05T00:20:50;5.72;;;4.97;;
35188;SDS011;21762;54.480;18.556;2022-08-05T00:23:18;6.00;;;5.15;;
35188;SDS011;21762;54.480;18.556;2022-08-05T00:25:46;6.35;;;4.75;;
35188;SDS011;21762;54.480;18.556;2022-08-05T00:28:16;5.32;;;4.53;;
35188;SDS011;21762;54.480;18.556;2022-08-05T00:30:44;6.00;;;5.38;;
35188;SDS011;21762;54.480;18.556;2022-08-05T00:33:12;5.78;;;5.22;;
35188;SDS011;21762;54.480;18.556;2022-08-05T00:35:42;4.80;;;4.30;;
35188;SDS011;21762;54.480;18.556;2022-08-05T00:38:10;7.28;;;4.45;;
35188;SDS011;21762;54.480;18.556;2022-08-05T00:40:44;11.25;;;5.00;;
35188;SDS011;21762;54.480;18.556;2022-08-05T00:43:13;5.82;;;4.63;;
35188;SDS011;21762;54.480;18.556;2022-08-05T00:45:42;4.93;;;4.53;;
35188;SDS011;21762;54.480;18.556;2022-08-05T00:48:11;6.65;;;4.68;;
35188;SDS011;21762;54.480;18.556;2022-08-05T00:50:42;6.78;;;5.07;;
35188;SDS011;21762;54.480;18.556;2022-08-05T00:53:12;5.18;;;4.55;;
35188;SDS011;21762;54.480;18.556;2022-08-05T00:55:41;6.20;;;4.70;;
35188;SDS011;21762;54.480;18.556;2022-08-05T00:58:10;5.80;;;4.18;;
35188;SDS011;21762;54.480;18.556;2022-08-05T01:00:39;10.00;;;4.60;;
35188;SDS011;21762;54.480;18.556;2022-08-05T01:03:09;7.75;;;5.05;;
35188;SDS011;21762;54.480;18.556;2022-08-05T01:05:38;5.30;;;4.82;;
35188;SDS011;21762;54.480;18.556;2022-08-05T01:08:06;7.60;;;4.88;;
35188;SDS011;21762;54.480;18.556;2022-08-05T01:10:36;6.78;;;5.03;;
35188;SDS011;21762;54.480;18.556;2022-08-05T01:13:09;6.93;;;5.88;;
35188;SDS011;21762;54.480;18.556;2022-08-05T01:15:42;7.97;;;5.88;;
35188;SDS011;21762;54.480;18.556;2022-08-05T01:23:19;9.00;;;7.97;;
35188;SDS011;21762;54.480;18.556;2022-08-05T01:25:59;10.55;;;9.23;;
35188;SDS011;21762;54.480;18.556;2022-08-05T01:28:34;11.15;;;9.00;;
35188;SDS011;21762;54.480;18.556;2022-08-05T01:31:04;12.27;;;9.18;;
35188;SDS011;21762;54.480;18.556;2022-08-05T01:33:37;9.93;;;8.30;;
35188;SDS011;21762;54.480;18.556;2022-08-05T01:36:10;15.07;;;9.05;;
35188;SDS011;21762;54.480;18.556;2022-08-05T01:38:40;12.27;;;9.02;;
35188;SDS011;21762;54.480;18.556;2022-08-05T01:41:10;12.07;;;8.65;;
35188;SDS011;21762;54.480;18.556;2022-08-05T01:43:42;11.27;;;8.70;;
35188;SDS011;21762;54.480;18.556;2022-08-05T01:46:11;11.40;;;8.23;;
35188;SDS011;21762;54.480;18.556;2022-08-05T01:48:39;13.23;;;9.57;;
35188;SDS011;21762;54.480;18.556;2022-08-05T01:51:08;10.27;;;8.75;;
35188;SDS011;21762;54.480;18.556;2022-08-05T01:53:36;9.23;;;8.02;;
35188;SDS011;21762;54.480;18.556;2022-08-05T01:56:05;10.00;;;8.35;;
35188;SDS011;21762;54.480;18.556;2022-08-05T01:58:34;8.05;;;7.28;;
35188;SDS011;21762;54.480;18.556;2022-08-05T02:01:04;13.07;;;8.52;;
35188;SDS011;21762;54.480;18.556;2022-08-05T02:03:34;9.25;;;7.95;;
35188;SDS011;21762;54.480;18.556;2022-08-05T02:06:04;15.35;;;8.73;;
35188;SDS011;21762;54.480;18.556;2022-08-05T02:08:33;10.40;;;7.57;;
35188;SDS011;21762;54.480;18.556;2022-08-05T02:11:06;11.27;;;7.32;;
35188;SDS011;21762;54.480;18.556;2022-08-05T02:13:36;9.38;;;7.63;;
35188;SDS011;21762;54.480;18.556;2022-08-05T02:16:14;13.07;;;8.63;;
35188;SDS011;21762;54.480;18.556;2022-08-05T02:18:47;9.82;;;8.32;;
35188;SDS011;21762;54.480;18.556;2022-08-05T02:21:17;9.93;;;7.95;;
35188;SDS011;21762;54.480;18.556;2022-08-05T02:23:47;10.02;;;7.78;;
35188;SDS011;21762;54.480;18.556;2022-08-05T02:26:18;11.40;;;8.18;;
35188;SDS011;21762;54.480;18.556;2022-08-05T02:28:48;9.98;;;8.88;;
35188;SDS011;21762;54.480;18.556;2022-08-05T02:31:20;10.77;;;9.18;;
35188;SDS011;21762;54.480;18.556;2022-08-05T02:33:51;11.65;;;9.45;;
35188;SDS011;21762;54.480;18.556;2022-08-05T02:36:21;10.77;;;9.13;;
35188;SDS011;21762;54.480;18.556;2022-08-05T02:38:50;11.10;;;10.00;;
35188;SDS011;21762;54.480;18.556;2022-08-05T02:41:21;14.63;;;10.70;;
35188;SDS011;21762;54.480;18.556;2022-08-05T02:43:50;12.07;;;10.05;;
35188;SDS011;21762;54.480;18.556;2022-08-05T02:46:20;14.40;;;10.38;;
35188;SDS011;21762;54.480;18.556;2022-08-05T02:48:49;15.52;;;10.93;;
35188;SDS011;21762;54.480;18.556;2022-08-05T02:51:18;15.18;;;10.75;;
35188;SDS011;21762;54.480;18.556;2022-08-05T02:53:46;11.88;;;10.43;;
35188;SDS011;21762;54.480;18.556;2022-08-05T02:56:14;13.73;;;10.70;;
35188;SDS011;21762;54.480;18.556;2022-08-05T02:58:42;11.20;;;10.10;;
35188;SDS011;21762;54.480;18.556;2022-08-05T03:01:12;13.82;;;10.82;;
35188;SDS011;21762;54.480;18.556;2022-08-05T03:03:43;11.10;;;9.98;;
35188;SDS011;21762;54.480;18.556;2022-08-05T03:06:11;15.00;;;10.70;;
35188;SDS011;21762;54.480;18.556;2022-08-05T03:08:39;12.10;;;10.80;;
35188;SDS011;21762;54.480;18.556;2022-08-05T03:11:15;11.45;;;10.35;;
35188;SDS011;21762;54.480;18.556;2022-08-05T03:13:44;15.70;;;9.93;;
35188;SDS011;21762;54.480;18.556;2022-08-05T03:16:12;11.98;;;10.52;;
35188;SDS011;21762;54.480;18.556;2022-08-05T03:18:40;11.02;;;9.90;;
35188;SDS011;21762;54.480;18.556;2022-08-05T03:21:10;11.52;;;10.43;;
35188;SDS011;21762;54.480;18.556;2022-08-05T03:23:39;13.23;;;9.82;;
35188;SDS011;21762;54.480;18.556;2022-08-05T03:26:08;11.30;;;10.20;;
35188;SDS011;21762;54.480;18.556;2022-08-05T03:28:37;11.48;;;9.70;;
35188;SDS011;21762;54.480;18.556;2022-08-05T03:31:05;12.57;;;9.43;;
35188;SDS011;21762;54.480;18.556;2022-08-05T03:33:34;14.52;;;9.65;;
35188;SDS011;21762;54.480;18.556;2022-08-05T03:36:04;13.60;;;9.82;;
35188;SDS011;21762;54.480;18.556;2022-08-05T03:38:33;14.15;;;10.40;;
35188;SDS011;21762;54.480;18.556;2022-08-05T03:41:01;12.75;;;9.70;;
35188;SDS011;21762;54.480;18.556;2022-08-05T03:43:29;12.85;;;10.20;;
35188;SDS011;21762;54.480;18.556;2022-08-05T03:45:57;11.45;;;9.95;;
35188;SDS011;21762;54.480;18.556;2022-08-05T03:48:26;12.27;;;10.27;;
35188;SDS011;21762;54.480;18.556;2022-08-05T03:50:56;10.00;;;9.00;;
35188;SDS011;21762;54.480;18.556;2022-08-05T03:53:31;14.25;;;10.20;;
35188;SDS011;21762;54.480;18.556;2022-08-05T03:56:03;11.32;;;10.05;;
35188;SDS011;21762;54.480;18.556;2022-08-05T03:58:34;10.25;;;9.27;;
35188;SDS011;21762;54.480;18.556;2022-08-05T04:01:03;11.98;;;9.52;;
35188;SDS011;21762;54.480;18.556;2022-08-05T04:03:34;11.48;;;9.52;;
35188;SDS011;21762;54.480;18.556;2022-08-05T04:06:04;11.45;;;9.35;;
35188;SDS011;21762;54.480;18.556;2022-08-05T04:08:34;12.18;;;8.70;;
35188;SDS011;21762;54.480;18.556;2022-08-05T04:11:03;10.40;;;9.07;;
35188;SDS011;21762;54.480;18.556;2022-08-05T04:13:34;11.50;;;9.40;;
35188;SDS011;21762;54.480;18.556;2022-08-05T04:18:34;11.80;;;8.35;;
35188;SDS011;21762;54.480;18.556;2022-08-05T04:21:03;11.63;;;9.27;;
35188;SDS011;21762;54.480;18.556;2022-08-05T04:23:33;10.20;;;9.20;;
35188;SDS011;21762;54.480;18.556;2022-08-05T04:26:03;9.23;;;8.32;;
35188;SDS011;21762;54.480;18.556;2022-08-05T04:28:31;10.48;;;9.13;;
35188;SDS011;21762;54.480;18.556;2022-08-05T04:31:00;12.40;;;9.32;;
35188;SDS011;21762;54.480;18.556;2022-08-05T04:33:28;11.27;;;8.65;;
35188;SDS011;21762;54.480;18.556;2022-08-05T04:35:56;12.07;;;9.35;;
35188;SDS011;21762;54.480;18.556;2022-08-05T04:38:24;15.27;;;9.57;;
35188;SDS011;21762;54.480;18.556;2022-08-05T04:40:54;10.32;;;9.23;;
35188;SDS011;21762;54.480;18.556;2022-08-05T04:43:22;9.93;;;8.93;;
35188;SDS011;21762;54.480;18.556;2022-08-05T04:45:50;11.75;;;9.80;;
35188;SDS011;21762;54.480;18.556;2022-08-05T04:48:19;11.88;;;8.85;;
35188;SDS011;21762;54.480;18.556;2022-08-05T04:50:47;13.02;;;9.98;;
35188;SDS011;21762;54.480;18.556;2022-08-05T04:53:16;19.00;;;10.02;;
35188;SDS011;21762;54.480;18.556;2022-08-05T04:55:45;17.10;;;10.45;;
35188;SDS011;21762;54.480;18.556;2022-08-05T04:58:15;14.43;;;9.77;;
35188;SDS011;21762;54.480;18.556;2022-08-05T05:00:44;13.48;;;9.40;;
35188;SDS011;21762;54.480;18.556;2022-08-05T05:03:12;16.48;;;10.10;;
35188;SDS011;21762;54.480;18.556;2022-08-05T05:05:40;10.15;;;8.82;;
35188;SDS011;21762;54.480;18.556;2022-08-05T05:08:09;9.70;;;8.48;;
35188;SDS011;21762;54.480;18.556;2022-08-05T05:10:38;13.43;;;8.48;;
35188;SDS011;21762;54.480;18.556;2022-08-05T05:13:08;12.82;;;8.63;;
35188;SDS011;21762;54.480;18.556;2022-08-05T05:15:38;17.60;;;10.82;;
35188;SDS011;21762;54.480;18.556;2022-08-05T05:18:07;15.35;;;9.95;;
35188;SDS011;21762;54.480;18.556;2022-08-05T05:20:35;43.67;;;13.68;;
35188;SDS011;21762;54.480;18.556;2022-08-05T05:23:03;16.17;;;10.00;;
35188;SDS011;21762;54.480;18.556;2022-08-05T05:25:32;21.63;;;9.25;;
35188;SDS011;21762;54.480;18.556;2022-08-05T05:28:00;15.85;;;9.57;;
35188;SDS011;21762;54.480;18.556;2022-08-05T05:30:28;12.50;;;8.75;;
35188;SDS011;21762;54.480;18.556;2022-08-05T05:32:59;14.57;;;8.48;;
35188;SDS011;21762;54.480;18.556;2022-08-05T05:35:27;10.15;;;7.78;;
35188;SDS011;21762;54.480;18.556;2022-08-05T05:37:56;15.32;;;8.85;;
35188;SDS011;21762;54.480;18.556;2022-08-05T05:40:26;16.30;;;8.77;;
35188;SDS011;21762;54.480;18.556;2022-08-05T05:42:55;11.68;;;9.05;;
35188;SDS011;21762;54.480;18.556;2022-08-05T05:45:23;15.10;;;9.57;;
35188;SDS011;21762;54.480;18.556;2022-08-05T05:47:51;14.98;;;9.20;;
35188;SDS011;21762;54.480;18.556;2022-08-05T05:50:21;14.18;;;8.90;;
35188;SDS011;21762;54.480;18.556;2022-08-05T05:52:49;15.50;;;8.63;;
35188;SDS011;21762;54.480;18.556;2022-08-05T05:55:17;14.45;;;8.32;;
35188;SDS011;21762;54.480;18.556;2022-08-05T05:57:46;19.70;;;9.70;;
35188;SDS011;21762;54.480;18.556;2022-08-05T06:00:15;13.80;;;8.75;;
35188;SDS011;21762;54.480;18.556;2022-08-05T06:02:44;18.10;;;9.10;;
35188;SDS011;21762;54.480;18.556;2022-08-05T06:05:13;17.10;;;8.90;;
35188;SDS011;21762;54.480;18.556;2022-08-05T06:07:44;13.15;;;8.02;;
35188;SDS011;21762;54.480;18.556;2022-08-05T06:10:13;14.70;;;7.93;;
35188;SDS011;21762;54.480;18.556;2022-08-05T06:12:41;12.73;;;8.57;;
35188;SDS011;21762;54.480;18.556;2022-08-05T06:15:09;19.38;;;9.32;;
35188;SDS011;21762;54.480;18.556;2022-08-05T06:17:40;18.33;;;7.93;;
35188;SDS011;21762;54.480;18.556;2022-08-05T06:20:10;14.20;;;7.25;;
35188;SDS011;21762;54.480;18.556;2022-08-05T06:22:38;18.25;;;8.05;;
35188;SDS011;21762;54.480;18.556;2022-08-05T06:25:08;16.00;;;8.13;;
35188;SDS011;21762;54.480;18.556;2022-08-05T06:27:38;14.75;;;7.80;;
35188;SDS011;21762;54.480;18.556;2022-08-05T06:30:08;18.08;;;7.82;;
35188;SDS011;21762;54.480;18.556;2022-08-05T06:32:41;15.55;;;8.38;;
35188;SDS011;21762;54.480;18.556;2022-08-05T06:35:09;13.55;;;8.10;;
35188;SDS011;21762;54.480;18.556;2022-08-05T06:37:38;11.32;;;8.13;;
35188;SDS011;21762;54.480;18.556;2022-08-05T06:40:07;14.05;;;7.15;;
35188;SDS011;21762;54.480;18.556;2022-08-05T06:42:37;15.35;;;8.63;;
35188;SDS011;21762;54.480;18.556;2022-08-05T06:45:06;15.80;;;8.18;;
35188;SDS011;21762;54.480;18.556;2022-08-05T06:47:35;16.00;;;8.95;;
35188;SDS011;21762;54.480;18.556;2022-08-05T06:50:03;14.75;;;8.25;;
35188;SDS011;21762;54.480;18.556;2022-08-05T06:52:32;8.98;;;7.47;;
35188;SDS011;21762;54.480;18.556;2022-08-05T06:55:01;13.38;;;8.45;;
35188;SDS011;21762;54.480;18.556;2022-08-05T06:57:30;21.98;;;7.90;;
35188;SDS011;21762;54.480;18.556;2022-08-05T06:59:58;14.55;;;7.55;;
35188;SDS011;21762;54.480;18.556;2022-08-05T07:02:29;23.20;;;7.97;;
35188;SDS011;21762;54.480;18.556;2022-08-05T07:04:57;24.10;;;7.40;;
35188;SDS011;21762;54.480;18.556;2022-08-05T07:07:25;13.57;;;7.90;;
35188;SDS011;21762;54.480;18.556;2022-08-05T07:09:53;18.27;;;7.47;;
35188;SDS011;21762;54.480;18.556;2022-08-05T07:12:21;23.73;;;8.18;;
35188;SDS011;21762;54.480;18.556;2022-08-05T07:15:17;18.05;;;6.65;;
35188;SDS011;21762;54.480;18.556;2022-08-05T07:18:03;9.15;;;6.28;;
35188;SDS011;21762;54.480;18.556;2022-08-05T07:20:31;10.43;;;6.15;;
35188;SDS011;21762;54.480;18.556;2022-08-05T07:23:00;18.77;;;6.20;;
35188;SDS011;21762;54.480;18.556;2022-08-05T07:25:28;13.45;;;6.85;;
35188;SDS011;21762;54.480;18.556;2022-08-05T07:27:58;15.75;;;6.53;;
35188;SDS011;21762;54.480;18.556;2022-08-05T07:30:31;15.13;;;7.17;;
35188;SDS011;21762;54.480;18.556;2022-08-05T07:33:00;13.95;;;5.97;;
35188;SDS011;21762;54.480;18.556;2022-08-05T07:35:29;13.57;;;6.60;;
35188;SDS011;21762;54.480;18.556;2022-08-05T07:37:57;7.15;;;6.15;;
35188;SDS011;21762;54.480;18.556;2022-08-05T07:40:25;12.82;;;5.78;;
35188;SDS011;21762;54.480;18.556;2022-08-05T07:42:54;23.67;;;6.53;;
35188;SDS011;21762;54.480;18.556;2022-08-05T07:45:22;8.82;;;5.85;;
35188;SDS011;21762;54.480;18.556;2022-08-05T07:47:51;12.05;;;5.68;;
35188;SDS011;21762;54.480;18.556;2022-08-05T07:50:22;12.02;;;5.95;;
35188;SDS011;21762;54.480;18.556;2022-08-05T07:52:52;11.40;;;5.30;;
35188;SDS011;21762;54.480;18.556;2022-08-05T07:55:20;12.82;;;5.38;;
35188;SDS011;21762;54.480;18.556;2022-08-05T07:57:48;15.45;;;6.68;;
35188;SDS011;21762;54.480;18.556;2022-08-05T08:00:18;13.98;;;5.78;;
35188;SDS011;21762;54.480;18.556;2022-08-05T08:02:46;8.45;;;4.85;;
35188;SDS011;21762;54.480;18.556;2022-08-05T08:05:15;11.45;;;5.00;;
35188;SDS011;21762;54.480;18.556;2022-08-05T08:07:43;10.38;;;5.90;;
35188;SDS011;21762;54.480;18.556;2022-08-05T08:10:13;8.52;;;4.82;;
35188;SDS011;21762;54.480;18.556;2022-08-05T08:12:42;10.57;;;4.50;;
35188;SDS011;21762;54.480;18.556;2022-08-05T08:15:10;5.63;;;4.22;;
35188;SDS011;21762;54.480;18.556;2022-08-05T08:17:38;13.13;;;4.85;;
35188;SDS011;21762;54.480;18.556;2022-08-05T08:20:07;8.43;;;4.00;;
35188;SDS011;21762;54.480;18.556;2022-08-05T08:22:38;7.05;;;4.10;;
35188;SDS011;21762;54.480;18.556;2022-08-05T08:25:07;4.63;;;3.47;;
35188;SDS011;21762;54.480;18.556;2022-08-05T08:27:36;4.78;;;3.28;;
35188;SDS011;21762;54.480;18.556;2022-08-05T08:30:05;15.40;;;3.00;;
35188;SDS011;21762;54.480;18.556;2022-08-05T08:32:36;8.32;;;3.67;;
35188;SDS011;21762;54.480;18.556;2022-08-05T08:35:04;9.90;;;4.10;;
35188;SDS011;21762;54.480;18.556;2022-08-05T08:37:33;5.25;;;3.17;;
35188;SDS011;21762;54.480;18.556;2022-08-05T08:40:04;5.88;;;3.42;;
35188;SDS011;21762;54.480;18.556;2022-08-05T08:42:33;7.95;;;3.53;;
35188;SDS011;21762;54.480;18.556;2022-08-05T08:45:01;6.75;;;2.85;;
35188;SDS011;21762;54.480;18.556;2022-08-05T08:47:31;6.65;;;2.92;;
35188;SDS011;21762;54.480;18.556;2022-08-05T08:49:59;5.35;;;3.10;;
35188;SDS011;21762;54.480;18.556;2022-08-05T08:52:33;6.43;;;3.00;;
35188;SDS011;21762;54.480;18.556;2022-08-05T08:55:04;6.35;;;2.67;;
35188;SDS011;21762;54.480;18.556;2022-08-05T08:57:33;7.10;;;2.65;;
35188;SDS011;21762;54.480;18.556;2022-08-05T09:00:02;10.77;;;3.22;;
35188;SDS011;21762;54.480;18.556;2022-08-05T09:02:31;8.75;;;3.10;;
35188;SDS011;21762;54.480;18.556;2022-08-05T09:04:59;3.63;;;2.80;;
35188;SDS011;21762;54.480;18.556;2022-08-05T09:07:28;8.25;;;2.60;;
35188;SDS011;21762;54.480;18.556;2022-08-05T09:09:56;7.97;;;3.53;;
35188;SDS011;21762;54.480;18.556;2022-08-05T09:12:25;4.90;;;2.65;;
35188;SDS011;21762;54.480;18.556;2022-08-05T09:14:53;5.13;;;2.70;;
35188;SDS011;21762;54.480;18.556;2022-08-05T09:17:25;3.88;;;2.70;;
35188;SDS011;21762;54.480;18.556;2022-08-05T09:19:53;4.70;;;2.67;;
35188;SDS011;21762;54.480;18.556;2022-08-05T09:22:21;5.28;;;2.45;;
35188;SDS011;21762;54.480;18.556;2022-08-05T09:24:55;5.20;;;2.97;;
35188;SDS011;21762;54.480;18.556;2022-08-05T09:27:29;6.97;;;3.25;;
35188;SDS011;21762;54.480;18.556;2022-08-05T09:29:59;3.13;;;2.38;;
35188;SDS011;21762;54.480;18.556;2022-08-05T09:32:33;2.80;;;2.47;;
35188;SDS011;21762;54.480;18.556;2022-08-05T09:35:08;4.78;;;2.65;;
35188;SDS011;21762;54.480;18.556;2022-08-05T09:37:37;3.55;;;2.58;;
35188;SDS011;21762;54.480;18.556;2022-08-05T09:40:07;3.80;;;2.38;;
35188;SDS011;21762;54.480;18.556;2022-08-05T09:42:41;7.00;;;2.40;;
35188;SDS011;21762;54.480;18.556;2022-08-05T09:45:09;6.40;;;2.40;;
35188;SDS011;21762;54.480;18.556;2022-08-05T09:47:39;5.43;;;2.72;;
35188;SDS011;21762;54.480;18.556;2022-08-05T09:50:08;4.72;;;2.50;;
35188;SDS011;21762;54.480;18.556;2022-08-05T09:52:36;10.00;;;2.58;;
35188;SDS011;21762;54.480;18.556;2022-08-05T09:55:05;8.82;;;2.50;;
35188;SDS011;21762;54.480;18.556;2022-08-05T09:57:35;4.43;;;2.10;;
35188;SDS011;21762;54.480;18.556;2022-08-05T10:00:08;7.73;;;2.67;;
35188;SDS011;21762;54.480;18.556;2022-08-05T10:02:38;6.28;;;2.47;;
35188;SDS011;21762;54.480;18.556;2022-08-05T10:05:09;3.58;;;2.45;;
35188;SDS011;21762;54.480;18.556;2022-08-05T10:07:42;5.32;;;2.38;;
35188;SDS011;21762;54.480;18.556;2022-08-05T10:10:12;6.90;;;2.70;;
35188;SDS011;21762;54.480;18.556;2022-08-05T10:12:42;3.83;;;2.05;;
35188;SDS011;21762;54.480;18.556;2022-08-05T10:15:22;2.72;;;2.30;;
35188;SDS011;21762;54.480;18.556;2022-08-05T10:20:46;4.15;;;2.40;;
35188;SDS011;21762;54.480;18.556;2022-08-05T10:23:18;5.82;;;2.13;;
35188;SDS011;21762;54.480;18.556;2022-08-05T10:25:48;3.47;;;2.53;;
35188;SDS011;21762;54.480;18.556;2022-08-05T10:28:16;8.85;;;3.30;;
35188;SDS011;21762;54.480;18.556;2022-08-05T10:30:46;3.00;;;2.33;;
35188;SDS011;21762;54.480;18.556;2022-08-05T10:33:14;6.60;;;2.67;;
35188;SDS011;21762;54.480;18.556;2022-08-05T10:35:44;6.70;;;2.50;;
35188;SDS011;21762;54.480;18.556;2022-08-05T10:38:15;7.30;;;2.55;;
35188;SDS011;21762;54.480;18.556;2022-08-05T10:40:49;5.78;;;2.72;;
35188;SDS011;21762;54.480;18.556;2022-08-05T10:43:23;4.03;;;2.17;;
35188;SDS011;21762;54.480;18.556;2022-08-05T10:46:02;6.82;;;2.30;;
35188;SDS011;21762;54.480;18.556;2022-08-05T10:48:32;8.00;;;2.20;;
35188;SDS011;21762;54.480;18.556;2022-08-05T10:51:03;8.07;;;2.63;;
35188;SDS011;21762;54.480;18.556;2022-08-05T10:53:35;5.63;;;2.33;;
35188;SDS011;21762;54.480;18.556;2022-08-05T10:56:09;5.18;;;2.30;;
35188;SDS011;21762;54.480;18.556;2022-08-05T10:58:49;4.68;;;2.10;;
35188;SDS011;21762;54.480;18.556;2022-08-05T11:01:32;3.92;;;2.15;;
35188;SDS011;21762;54.480;18.556;2022-08-05T11:04:05;4.15;;;2.10;;
35188;SDS011;21762;54.480;18.556;2022-08-05T11:07:02;5.32;;;2.10;;
35188;SDS011;21762;54.480;18.556;2022-08-05T11:09:36;9.27;;;2.67;;
35188;SDS011;21762;54.480;18.556;2022-08-05T11:15:15;3.15;;;1.98;;
35188;SDS011;21762;54.480;18.556;2022-08-05T11:17:48;3.38;;;2.50;;
35188;SDS011;21762;54.480;18.556;2022-08-05T11:20:33;9.30;;;2.80;;
35188;SDS011;21762;54.480;18.556;2022-08-05T11:26:02;3.60;;;2.47;;
35188;SDS011;21762;54.480;18.556;2022-08-05T11:28:38;5.57;;;2.50;;
35188;SDS011;21762;54.480;18.556;2022-08-05T11:31:24;6.28;;;2.53;;
35188;SDS011;21762;54.480;18.556;2022-08-05T11:34:03;7.80;;;2.80;;
35188;SDS011;21762;54.480;18.556;2022-08-05T11:36:46;7.60;;;2.47;;
35188;SDS011;21762;54.480;18.556;2022-08-05T11:42:23;12.05;;;3.10;;
35188;SDS011;21762;54.480;18.556;2022-08-05T11:44:52;3.15;;;2.00;;
35188;SDS011;21762;54.480;18.556;2022-08-05T11:47:26;3.08;;;2.33;;
35188;SDS011;21762;54.480;18.556;2022-08-05T11:49:56;4.55;;;2.25;;
35188;SDS011;21762;54.480;18.556;2022-08-05T11:52:26;4.38;;;2.15;;
35188;SDS011;21762;54.480;18.556;2022-08-05T11:54:55;6.55;;;2.50;;
35188;SDS011;21762;54.480;18.556;2022-08-05T11:57:26;9.20;;;2.45;;
35188;SDS011;21762;54.480;18.556;2022-08-05T11:59:55;3.50;;;2.38;;
35188;SDS011;21762;54.480;18.556;2022-08-05T12:02:24;4.10;;;2.10;;
35188;SDS011;21762;54.480;18.556;2022-08-05T12:04:54;5.40;;;2.45;;
35188;SDS011;21762;54.480;18.556;2022-08-05T12:07:23;5.40;;;2.20;;
35188;SDS011;21762;54.480;18.556;2022-08-05T12:09:52;17.63;;;2.80;;
35188;SDS011;21762;54.480;18.556;2022-08-05T12:12:21;3.83;;;2.40;;
35188;SDS011;21762;54.480;18.556;2022-08-05T12:14:50;10.38;;;2.38;;
35188;SDS011;21762;54.480;18.556;2022-08-05T12:17:18;4.35;;;2.28;;
35188;SDS011;21762;54.480;18.556;2022-08-05T12:19:47;4.32;;;1.85;;
35188;SDS011;21762;54.480;18.556;2022-08-05T12:22:18;6.15;;;2.15;;
35188;SDS011;21762;54.480;18.556;2022-08-05T12:24:49;10.23;;;2.33;;
35188;SDS011;21762;54.480;18.556;2022-08-05T12:27:18;6.38;;;2.25;;
35188;SDS011;21762;54.480;18.556;2022-08-05T12:29:56;3.45;;;2.30;;
35188;SDS011;21762;54.480;18.556;2022-08-05T12:32:25;5.13;;;2.00;;
35188;SDS011;21762;54.480;18.556;2022-08-05T12:34:53;6.20;;;2.50;;
35188;SDS011;21762;54.480;18.556;2022-08-05T12:37:22;5.35;;;1.90;;
35188;SDS011;21762;54.480;18.556;2022-08-05T12:39:53;11.52;;;2.45;;
35188;SDS011;21762;54.480;18.556;2022-08-05T12:42:27;7.15;;;2.22;;
35188;SDS011;21762;54.480;18.556;2022-08-05T12:45:00;7.75;;;2.00;;
35188;SDS011;21762;54.480;18.556;2022-08-05T12:47:29;3.92;;;2.17;;
35188;SDS011;21762;54.480;18.556;2022-08-05T12:49:58;5.00;;;2.70;;
35188;SDS011;21762;54.480;18.556;2022-08-05T12:52:27;3.80;;;1.80;;
35188;SDS011;21762;54.480;18.556;2022-08-05T12:54:58;3.35;;;1.90;;
35188;SDS011;21762;54.480;18.556;2022-08-05T12:57:26;4.60;;;2.13;;
35188;SDS011;21762;54.480;18.556;2022-08-05T13:00:02;2.30;;;1.80;;
35188;SDS011;21762;54.480;18.556;2022-08-05T13:02:34;3.40;;;1.83;;
35188;SDS011;21762;54.480;18.556;2022-08-05T13:05:04;4.05;;;2.35;;
35188;SDS011;21762;54.480;18.556;2022-08-05T13:07:33;3.43;;;1.77;;
35188;SDS011;21762;54.480;18.556;2022-08-05T13:10:23;6.80;;;2.00;;
35188;SDS011;21762;54.480;18.556;2022-08-05T13:12:51;3.30;;;1.98;;
35188;SDS011;21762;54.480;18.556;2022-08-05T13:15:27;2.70;;;1.88;;
35188;SDS011;21762;54.480;18.556;2022-08-05T13:17:56;6.22;;;2.00;;
35188;SDS011;21762;54.480;18.556;2022-08-05T13:20:32;6.30;;;2.05;;
35188;SDS011;21762;54.480;18.556;2022-08-05T13:23:00;6.90;;;2.15;;
35188;SDS011;21762;54.480;18.556;2022-08-05T13:25:30;7.85;;;2.28;;
35188;SDS011;21762;54.480;18.556;2022-08-05T13:27:58;4.25;;;2.03;;
35188;SDS011;21762;54.480;18.556;2022-08-05T13:30:27;8.10;;;2.00;;
35188;SDS011;21762;54.480;18.556;2022-08-05T13:32:55;4.30;;;2.17;;
35188;SDS011;21762;54.480;18.556;2022-08-05T13:35:23;7.28;;;2.33;;
35188;SDS011;21762;54.480;18.556;2022-08-05T13:37:52;12.48;;;2.08;;
35188;SDS011;21762;54.480;18.556;2022-08-05T13:40:20;2.97;;;2.10;;
35188;SDS011;21762;54.480;18.556;2022-08-05T13:42:58;3.00;;;2.00;;
35188;SDS011;21762;54.480;18.556;2022-08-05T13:45:26;4.53;;;2.50;;
35188;SDS011;21762;54.480;18.556;2022-08-05T13:47:54;8.43;;;2.03;;
35188;SDS011;21762;54.480;18.556;2022-08-05T13:50:22;2.20;;;2.00;;
35188;SDS011;21762;54.480;18.556;2022-08-05T13:52:50;8.30;;;2.42;;
35188;SDS011;21762;54.480;18.556;2022-08-05T13:55:19;6.20;;;2.47;;
35188;SDS011;21762;54.480;18.556;2022-08-05T13:57:47;5.88;;;2.13;;
35188;SDS011;21762;54.480;18.556;2022-08-05T14:00:16;30.40;;;4.20;;
35188;SDS011;21762;54.480;18.556;2022-08-05T14:02:45;8.18;;;2.47;;
35188;SDS011;21762;54.480;18.556;2022-08-05T14:05:13;7.55;;;2.00;;
35188;SDS011;21762;54.480;18.556;2022-08-05T14:07:42;14.63;;;2.70;;
35188;SDS011;21762;54.480;18.556;2022-08-05T14:10:13;15.40;;;3.15;;
35188;SDS011;21762;54.480;18.556;2022-08-05T14:12:42;3.42;;;1.90;;
35188;SDS011;21762;54.480;18.556;2022-08-05T14:15:11;2.20;;;1.90;;
35188;SDS011;21762;54.480;18.556;2022-08-05T14:17:41;3.78;;;1.95;;
35188;SDS011;21762;54.480;18.556;2022-08-05T14:20:09;3.03;;;2.03;;
35188;SDS011;21762;54.480;18.556;2022-08-05T14:22:39;8.27;;;2.17;;
35188;SDS011;21762;54.480;18.556;2022-08-05T14:25:09;4.90;;;2.20;;
35188;SDS011;21762;54.480;18.556;2022-08-05T14:27:38;10.52;;;2.20;;
35188;SDS011;21762;54.480;18.556;2022-08-05T14:30:07;17.10;;;2.10;;
35188;SDS011;21762;54.480;18.556;2022-08-05T14:32:35;5.47;;;2.10;;
35188;SDS011;21762;54.480;18.556;2022-08-05T14:35:06;5.40;;;1.95;;
35188;SDS011;21762;54.480;18.556;2022-08-05T14:37:34;4.00;;;1.80;;
35188;SDS011;21762;54.480;18.556;2022-08-05T14:40:03;21.67;;;2.78;;
35188;SDS011;21762;54.480;18.556;2022-08-05T14:42:32;7.55;;;3.10;;
35188;SDS011;21762;54.480;18.556;2022-08-05T14:45:01;3.17;;;2.00;;
35188;SDS011;21762;54.480;18.556;2022-08-05T14:47:29;4.63;;;2.03;;
35188;SDS011;21762;54.480;18.556;2022-08-05T14:49:58;6.05;;;1.95;;
35188;SDS011;21762;54.480;18.556;2022-08-05T14:52:30;3.22;;;2.08;;
35188;SDS011;21762;54.480;18.556;2022-08-05T14:55:15;3.83;;;2.20;;
35188;SDS011;21762;54.480;18.556;2022-08-05T14:57:43;7.18;;;2.72;;
35188;SDS011;21762;54.480;18.556;2022-08-05T15:00:12;6.40;;;4.38;;
35188;SDS011;21762;54.480;18.556;2022-08-05T15:02:40;4.63;;;4.22;;
35188;SDS011;21762;54.480;18.556;2022-08-05T15:05:09;6.82;;;4.53;;